Main page
METAR-TAF:

METAR-TAF

Airports :

St Mary's Airport

Isles of Scilly, England

latitude: 49-55N, longitude: 006-18W, elevation: 31 m

Current weather observation

The report was made 1 hour and 48 minutes ago, at 17:20 UTC
Wind 25 kt from the South
Temperature 13°C
Humidity 88%
Pressure 1020 hPa
Visibility: 9000 m

METAR: EGHE 131720Z 19025KT 9000 NSC 13/11 Q1020

Time: 19:08 (19:08 UTC)

Forecast

The report was made 4 hours and 55 minutes ago, at 14:13 UTC
Forecast valid from 13 at 15 UTC to 13 at 17 UTC
Wind 18 kt from the West/Southwest
Visibility 10 km or more
Few clouds at a height of 2500 ft
Becoming
from 13 at 15 UTC to 13 at 17 UTC
Wind 21 kt from the South with gusts up to 31 kt

TAF: EGHE 131413Z 1315/1317 25018KT 9999 FEW025 BECMG 1315/1317 19021G31KT

Weather observations and forecasts of more than 4000 airports (METAR and TAF reports).

The available stations are represented by yellow and red dots on the map.

Hover mouse over dot to see the name of the station.

Then click to see weather observations and forecasts.

To change the map : click on the green buttons with a black cross to zoom in, on the green button with a dash to zoom out, or on the green arrows for adjacent maps.


METAR-TAF: